createdAt,value
2018-04-12T00:00:09.936Z,14.90
2018-04-12T00:01:09.914Z,14.80
2018-04-12T00:02:09.893Z,14.90
2018-04-12T00:03:09.885Z,15.20
2018-04-12T00:04:09.886Z,15.20
2018-04-12T00:05:09.851Z,14.90
2018-04-12T00:06:09.835Z,14.50
2018-04-12T00:07:09.826Z,14.80
2018-04-12T00:08:09.807Z,14.60
2018-04-12T00:09:09.812Z,15.60
2018-04-12T00:10:09.775Z,14.60
2018-04-12T00:11:09.761Z,14.90
2018-04-12T00:12:09.744Z,14.90
2018-04-12T00:13:09.723Z,15.40
2018-04-12T00:14:09.705Z,15.50
2018-04-12T00:15:09.722Z,17.40
2018-04-12T00:16:09.674Z,16.30
2018-04-12T00:17:09.659Z,17.50
2018-04-12T00:18:09.651Z,18.20
2018-04-12T00:19:09.639Z,18.90
2018-04-12T00:20:09.635Z,19.00
2018-04-12T00:21:09.615Z,20.20
2018-04-12T00:22:09.577Z,20.60
2018-04-12T00:23:09.568Z,20.50
2018-04-12T00:24:09.556Z,22.00
2018-04-12T00:25:09.533Z,22.00
2018-04-12T00:26:09.537Z,22.10
2018-04-12T00:27:09.527Z,22.00
2018-04-12T00:28:09.485Z,22.70
2018-04-12T00:29:10.457Z,23.40
2018-04-12T00:30:09.456Z,25.60
2018-04-12T00:31:09.440Z,27.40
2018-04-12T00:32:09.991Z,26.30
2018-04-12T00:33:09.419Z,26.90
2018-04-12T00:34:09.389Z,27.70
2018-04-12T00:35:09.372Z,28.70
2018-04-12T00:36:09.371Z,30.60
2018-04-12T00:37:09.339Z,31.30
2018-04-12T00:38:09.339Z,32.00
2018-04-12T00:39:09.309Z,32.60
2018-04-12T00:40:09.297Z,32.10
2018-04-12T00:41:09.285Z,33.80
2018-04-12T00:42:09.260Z,36.80
2018-04-12T00:43:09.245Z,36.80
2018-04-12T00:44:30.244Z,37.40
2018-04-12T00:45:09.213Z,38.30
2018-04-12T00:46:09.198Z,40.10
2018-04-12T00:47:09.187Z,38.30
2018-04-12T00:48:09.187Z,40.10
2018-04-12T00:49:09.144Z,37.90
2018-04-12T00:50:09.150Z,43.10
2018-04-12T00:51:09.119Z,41.60
2018-04-12T00:52:09.103Z,43.90
2018-04-12T00:53:09.112Z,43.60
2018-04-12T00:54:09.067Z,44.90
2018-04-12T00:55:09.062Z,44.30
2018-04-12T00:56:09.043Z,48.90
2018-04-12T00:57:09.023Z,46.00
2018-04-12T00:58:09.002Z,46.40
2018-04-12T00:59:09.004Z,47.80
2018-04-12T01:00:08.977Z,46.60
2018-04-12T01:01:08.960Z,49.10
2018-04-12T01:02:08.947Z,50.80
2018-04-12T01:03:08.932Z,50.70
2018-04-12T01:04:08.930Z,50.50
2018-04-12T01:05:08.913Z,52.00
2018-04-12T01:06:08.884Z,52.30
2018-04-12T01:07:08.880Z,52.70
2018-04-12T01:08:08.860Z,58.50
2018-04-12T01:09:08.836Z,65.60
2018-04-12T01:10:09.533Z,60.70
2018-04-12T01:11:08.817Z,57.70
2018-04-12T01:12:08.804Z,59.40
2018-04-12T01:13:08.790Z,62.20
2018-04-12T01:14:08.758Z,66.40
2018-04-12T01:15:08.743Z,69.10
2018-04-12T01:16:08.744Z,68.10
2018-04-12T01:17:08.707Z,66.10
2018-04-12T01:18:08.696Z,68.00
2018-04-12T01:19:08.679Z,72.60
2018-04-12T01:20:08.660Z,70.90
2018-04-12T01:21:08.662Z,70.60
2018-04-12T01:22:08.642Z,74.20
2018-04-12T01:23:08.618Z,75.20
2018-04-12T01:24:08.600Z,76.90
2018-04-12T01:25:08.588Z,77.40
2018-04-12T01:26:08.565Z,77.00
2018-04-12T01:27:08.570Z,79.80
2018-04-12T01:28:08.536Z,78.50
2018-04-12T01:29:08.518Z,80.50
2018-04-12T01:30:08.505Z,82.30
2018-04-12T01:31:08.490Z,81.00
2018-04-12T01:32:08.469Z,77.70
2018-04-12T01:33:08.478Z,83.50
2018-04-12T01:34:08.456Z,82.50
2018-04-12T01:35:08.453Z,79.70
2018-04-12T01:36:08.414Z,82.00
2018-04-12T01:37:08.393Z,82.80
2018-04-12T01:38:08.396Z,81.50
2018-04-12T01:39:08.360Z,84.00
2018-04-12T01:40:08.372Z,88.20
2018-04-12T01:41:08.333Z,88.00
2018-04-12T01:42:08.312Z,87.70
2018-04-12T01:43:08.302Z,90.30
2018-04-12T01:44:08.313Z,90.00
2018-04-12T01:45:08.273Z,88.30
2018-04-12T01:46:08.247Z,86.60
2018-04-12T01:47:08.250Z,89.20
2018-04-12T01:48:08.227Z,90.20
2018-04-12T01:49:08.219Z,91.80
2018-04-12T01:50:08.187Z,88.90
2018-04-12T01:51:08.172Z,92.30
2018-04-12T01:52:08.157Z,92.30
2018-04-12T01:53:08.140Z,94.50
2018-04-12T01:54:08.137Z,95.70
2018-04-12T01:55:08.111Z,95.50
2018-04-12T01:56:08.091Z,97.50
2018-04-12T01:57:08.094Z,98.30
2018-04-12T01:58:08.078Z,101.20
2018-04-12T01:59:08.052Z,94.40
2018-04-12T02:00:08.036Z,96.60
2018-04-12T02:01:08.017Z,93.60
2018-04-12T02:02:07.994Z,97.90
2018-04-12T02:03:08.023Z,99.60
2018-04-12T02:04:07.964Z,103.30
2018-04-12T02:05:07.955Z,96.10
2018-04-12T02:06:07.937Z,94.30
2018-04-12T02:07:07.917Z,92.30
2018-04-12T02:08:07.904Z,94.60
2018-04-12T02:09:07.906Z,97.80
2018-04-12T02:10:07.873Z,99.60
2018-04-12T02:11:07.865Z,97.60
2018-04-12T02:12:07.842Z,97.60
2018-04-12T02:13:07.825Z,100.00
2018-04-12T02:14:07.822Z,100.50
2018-04-12T02:15:08.552Z,100.90
2018-04-12T02:16:07.788Z,97.20
2018-04-12T02:17:07.775Z,105.00
2018-04-12T02:18:07.752Z,100.90
2018-04-12T02:19:07.747Z,99.60
2018-04-12T02:20:07.717Z,104.60
2018-04-12T02:21:07.720Z,104.60
2018-04-12T02:22:07.687Z,102.20
2018-04-12T02:23:07.670Z,108.00
2018-04-12T02:24:08.509Z,104.80
2018-04-12T02:25:08.477Z,103.90
2018-04-12T02:26:07.630Z,107.00
2018-04-12T02:27:07.605Z,108.30
2018-04-12T02:28:07.594Z,110.40
2018-04-12T02:29:07.581Z,109.20
2018-04-12T02:30:07.573Z,105.80
2018-04-12T02:31:07.549Z,105.60
2018-04-12T02:32:07.530Z,106.30
2018-04-12T02:33:07.535Z,107.40
2018-04-12T02:34:07.498Z,109.00
2018-04-12T02:35:07.491Z,111.00
2018-04-12T02:36:07.466Z,113.40
2018-04-12T02:37:07.459Z,110.90
2018-04-12T02:38:07.434Z,112.00
2018-04-12T02:39:07.452Z,116.00
2018-04-12T02:40:07.420Z,120.70
2018-04-12T02:41:07.387Z,118.00
2018-04-12T02:42:07.481Z,115.90
2018-04-12T02:43:07.356Z,121.50
2018-04-12T02:44:07.341Z,117.30
2018-04-12T02:45:07.342Z,117.60
2018-04-12T02:46:07.332Z,118.20
2018-04-12T02:47:07.294Z,116.30
2018-04-12T02:48:07.281Z,117.80
2018-04-12T02:49:07.278Z,115.60
2018-04-12T02:50:07.249Z,119.50
2018-04-12T02:51:07.250Z,118.50
2018-04-12T02:52:07.217Z,119.10
2018-04-12T02:53:07.198Z,121.30
2018-04-12T02:54:07.185Z,115.90
2018-04-12T02:55:07.173Z,118.00
2018-04-12T02:56:07.189Z,115.00
2018-04-12T02:57:07.138Z,115.20
2018-04-12T02:58:07.122Z,117.60
2018-04-12T02:59:07.103Z,119.90
2018-04-12T03:00:07.089Z,120.10
2018-04-12T03:01:07.074Z,120.30
2018-04-12T03:02:07.071Z,124.00
2018-04-12T03:03:07.042Z,121.40
2018-04-12T03:04:07.026Z,119.90
2018-04-12T03:05:07.028Z,120.20
2018-04-12T03:06:06.993Z,120.80
2018-04-12T03:07:06.999Z,123.00
2018-04-12T03:08:06.976Z,118.10
2018-04-12T03:09:06.949Z,116.40
2018-04-12T03:10:06.936Z,116.20
2018-04-12T03:11:06.921Z,121.70
2018-04-12T03:12:06.904Z,121.80
2018-04-12T03:13:06.903Z,127.30
2018-04-12T03:14:06.874Z,125.00
2018-04-12T03:15:06.867Z,112.90
2018-04-12T03:16:06.839Z,124.20
2018-04-12T03:17:06.830Z,131.20
2018-04-12T03:18:06.809Z,130.40
2018-04-12T03:19:06.807Z,132.60
2018-04-12T03:20:06.794Z,132.50
2018-04-12T03:21:06.777Z,115.00
2018-04-12T03:22:06.747Z,128.10
2018-04-12T03:23:06.732Z,132.30
2018-04-12T03:24:06.715Z,129.90
2018-04-12T03:25:06.720Z,133.70
2018-04-12T03:26:06.691Z,135.10
2018-04-12T03:27:06.669Z,139.10
2018-04-12T03:28:06.659Z,138.70
2018-04-12T03:29:06.632Z,130.60
2018-04-12T03:30:06.639Z,133.70
2018-04-12T03:31:06.612Z,132.30
2018-04-12T03:32:06.602Z,128.10
2018-04-12T03:33:06.576Z,134.90
2018-04-12T03:34:06.554Z,130.50
2018-04-12T03:35:06.557Z,125.30
2018-04-12T03:36:06.529Z,130.20
2018-04-12T03:37:06.514Z,129.30
2018-04-12T03:38:06.493Z,129.30
2018-04-12T03:39:06.474Z,127.80
2018-04-12T03:40:06.477Z,125.40
2018-04-12T03:41:06.442Z,132.60
2018-04-12T03:42:06.456Z,123.00
2018-04-12T03:43:06.414Z,126.90
2018-04-12T03:44:06.402Z,135.20
2018-04-12T03:45:06.385Z,121.00
2018-04-12T03:46:06.369Z,130.30
2018-04-12T03:47:06.371Z,135.90
2018-04-12T03:48:06.344Z,131.30
2018-04-12T03:49:06.388Z,136.30
2018-04-12T03:50:06.305Z,124.50
2018-04-12T03:51:06.292Z,136.60
2018-04-12T03:52:06.275Z,125.60
2018-04-12T03:53:06.269Z,135.80
2018-04-12T03:54:06.242Z,127.70
2018-04-12T03:55:06.226Z,129.90
2018-04-12T03:56:06.206Z,132.40
2018-04-12T03:57:06.206Z,145.40
2018-04-12T03:58:06.191Z,130.60
2018-04-12T03:59:06.162Z,125.50
2018-04-12T04:00:06.158Z,119.40
2018-04-12T04:01:06.130Z,133.60
2018-04-12T04:02:06.113Z,130.10
2018-04-12T04:03:06.115Z,125.40
2018-04-12T04:04:06.095Z,121.00
2018-04-12T04:05:06.068Z,127.90
2018-04-12T04:06:06.044Z,127.00
2018-04-12T04:07:06.033Z,118.00
2018-04-12T04:08:06.020Z,123.10
2018-04-12T04:09:06.006Z,129.10
2018-04-12T04:10:06.004Z,121.90
2018-04-12T04:11:05.986Z,125.40
2018-04-12T04:12:05.954Z,121.00
2018-04-12T04:13:05.937Z,115.10
2018-04-12T04:14:05.919Z,116.20
2018-04-12T04:15:05.923Z,113.40
2018-04-12T04:16:05.892Z,115.70
2018-04-12T04:17:05.876Z,115.80
2018-04-12T04:18:05.857Z,111.60
2018-04-12T04:19:05.842Z,112.70
2018-04-12T04:20:05.830Z,109.70
2018-04-12T04:21:05.829Z,114.10
2018-04-12T04:22:05.794Z,114.50
2018-04-12T04:23:05.780Z,112.50
2018-04-12T04:24:05.761Z,114.90
2018-04-12T04:25:05.764Z,112.90
2018-04-12T04:26:05.745Z,109.80
2018-04-12T04:27:05.713Z,117.80
2018-04-12T04:28:05.710Z,113.40
2018-04-12T04:29:05.683Z,110.40
2018-04-12T04:30:05.667Z,110.70
2018-04-12T04:31:05.684Z,108.50
2018-04-12T04:32:05.633Z,108.70
2018-04-12T04:33:05.626Z,108.60
2018-04-12T04:34:05.605Z,109.80
2018-04-12T04:35:05.606Z,111.30
2018-04-12T04:36:05.582Z,110.80
2018-04-12T04:37:05.578Z,110.70
2018-04-12T04:38:05.554Z,109.90
2018-04-12T04:39:05.524Z,108.30
2018-04-12T04:40:05.504Z,106.70
2018-04-12T04:41:05.492Z,105.80
2018-04-12T04:42:05.492Z,104.50
2018-04-12T04:43:05.460Z,106.30
2018-04-12T04:44:05.444Z,103.80
2018-04-12T04:45:05.427Z,107.30
2018-04-12T04:46:05.415Z,110.10
2018-04-12T04:47:05.414Z,108.70
2018-04-12T04:48:05.382Z,102.70
2018-04-12T04:49:05.391Z,102.60
2018-04-12T04:50:05.347Z,96.60
2018-04-12T04:51:05.327Z,100.10
2018-04-12T04:52:05.319Z,100.70
2018-04-12T04:53:05.302Z,111.00
2018-04-12T04:54:05.289Z,108.30
2018-04-12T04:55:05.287Z,98.80
2018-04-12T04:56:05.257Z,98.00
2018-04-12T04:57:05.235Z,95.10
2018-04-12T04:58:05.224Z,95.10
2018-04-12T04:59:05.204Z,94.90
2018-04-12T05:00:05.206Z,92.10
2018-04-12T05:01:05.165Z,91.80
2018-04-12T05:02:05.156Z,88.10
2018-04-12T05:03:05.134Z,91.40
2018-04-12T05:04:05.125Z,92.90
2018-04-12T05:05:05.123Z,94.90
2018-04-12T05:06:05.097Z,92.00
2018-04-12T05:07:05.077Z,89.40
2018-04-12T05:08:05.066Z,90.10
2018-04-12T05:09:05.043Z,91.70
2018-04-12T05:10:05.054Z,85.90
2018-04-12T05:11:05.035Z,89.90
2018-04-12T05:12:04.995Z,88.50
2018-04-12T05:13:04.983Z,86.90
2018-04-12T05:14:04.968Z,88.80
2018-04-12T05:15:04.951Z,91.00
2018-04-12T05:16:04.961Z,86.90
2018-04-12T05:17:04.912Z,83.90
2018-04-12T05:18:07.574Z,86.40
2018-04-12T05:19:18.181Z,84.90
2018-04-12T05:20:05.539Z,87.80
2018-04-12T05:21:04.871Z,84.40
2018-04-12T05:22:04.855Z,85.90
2018-04-12T05:23:04.817Z,83.80
2018-04-12T05:24:04.814Z,86.90
2018-04-12T05:25:04.781Z,84.50
2018-04-12T05:26:04.769Z,84.20
2018-04-12T05:27:04.770Z,83.30
2018-04-12T05:28:04.737Z,82.30
2018-04-12T05:29:04.742Z,81.80
2018-04-12T05:30:04.718Z,80.20
2018-04-12T05:31:04.691Z,84.70
2018-04-12T05:32:04.675Z,86.90
2018-04-12T05:33:04.719Z,85.00
2018-04-12T05:34:04.648Z,82.40
2018-04-12T05:35:04.631Z,81.00
2018-04-12T05:36:04.615Z,80.90
2018-04-12T05:37:04.614Z,81.60
2018-04-12T05:38:04.598Z,81.40
2018-04-12T05:39:04.574Z,81.30
2018-04-12T05:40:04.548Z,80.80
2018-04-12T05:41:04.537Z,81.40
2018-04-12T05:42:04.514Z,84.20
2018-04-12T05:43:04.500Z,82.50
2018-04-12T05:44:04.502Z,81.60
2018-04-12T05:45:04.473Z,79.70
2018-04-12T05:46:04.456Z,80.50
2018-04-12T05:47:04.442Z,81.50
2018-04-12T05:48:04.424Z,77.20
2018-04-12T05:49:04.423Z,79.10
2018-04-12T05:50:04.392Z,83.10
2018-04-12T05:51:04.373Z,77.50
2018-04-12T05:52:04.370Z,77.10
2018-04-12T05:53:04.340Z,79.10
2018-04-12T05:54:04.324Z,73.50
2018-04-12T05:55:04.327Z,75.70
2018-04-12T05:56:04.293Z,75.10
2018-04-12T05:57:04.281Z,72.30
2018-04-12T05:58:04.271Z,72.90
2018-04-12T05:59:04.250Z,73.10
2018-04-12T06:00:04.254Z,72.60
2018-04-12T06:01:04.230Z,76.30
2018-04-12T06:02:04.201Z,74.60
2018-04-12T06:03:04.188Z,73.50
2018-04-12T06:04:04.173Z,71.90
2018-04-12T06:05:04.152Z,70.30
2018-04-12T06:06:04.138Z,72.40
2018-04-12T06:07:04.140Z,76.70
2018-04-12T06:08:04.106Z,72.60
2018-04-12T06:09:04.093Z,73.50
2018-04-12T06:10:04.074Z,75.00
2018-04-12T06:11:04.058Z,70.90
2018-04-12T06:12:04.047Z,71.60
2018-04-12T06:13:04.047Z,69.60
2018-04-12T06:14:04.019Z,71.20
2018-04-12T06:15:03.999Z,71.80
2018-04-12T06:16:03.997Z,72.60
2018-04-12T06:17:04.580Z,78.00
2018-04-12T06:18:03.952Z,77.30
2018-04-12T06:19:03.935Z,73.10
2018-04-12T06:20:03.925Z,73.50
2018-04-12T06:21:03.906Z,75.20
2018-04-12T06:22:03.891Z,73.10
2018-04-12T06:23:03.897Z,73.00
2018-04-12T06:24:03.861Z,73.60
2018-04-12T06:25:03.845Z,72.70
2018-04-12T06:26:03.830Z,71.90
2018-04-12T06:27:03.816Z,73.80
2018-04-12T06:28:03.822Z,74.10
2018-04-12T06:29:03.779Z,72.20
2018-04-12T06:30:03.768Z,77.00
2018-04-12T06:31:03.766Z,79.00
2018-04-12T06:32:03.737Z,74.20
2018-04-12T06:33:03.740Z,73.10
2018-04-12T06:34:03.702Z,74.30
2018-04-12T06:35:03.691Z,75.40
2018-04-12T06:36:03.677Z,75.40
2018-04-12T06:37:03.662Z,75.00
2018-04-12T06:38:03.647Z,75.80
2018-04-12T06:39:03.657Z,76.00
2018-04-12T06:40:03.615Z,75.50
2018-04-12T06:41:03.599Z,79.10
2018-04-12T06:42:03.583Z,74.40
2018-04-12T06:43:03.577Z,77.50
2018-04-12T06:44:03.572Z,77.20
2018-04-12T06:45:03.537Z,76.00
2018-04-12T06:46:04.087Z,76.90
2018-04-12T06:47:03.507Z,78.90
2018-04-12T06:48:03.492Z,80.00
2018-04-12T06:49:03.493Z,76.90
2018-04-12T06:50:03.461Z,76.40
2018-04-12T06:51:03.449Z,76.60
2018-04-12T06:52:03.432Z,77.80
2018-04-12T06:53:03.434Z,77.20
2018-04-12T06:54:03.437Z,78.30
2018-04-12T06:55:03.402Z,81.10
2018-04-12T06:56:03.371Z,78.30
2018-04-12T06:57:03.356Z,81.50
2018-04-12T06:58:03.356Z,77.30
2018-04-12T06:59:03.325Z,75.60
2018-04-12T07:00:03.332Z,75.50
2018-04-12T07:01:03.295Z,76.90
2018-04-12T07:02:03.285Z,76.60
2018-04-12T07:03:03.288Z,77.30
2018-04-12T07:04:03.250Z,74.20
2018-04-12T07:05:03.236Z,76.10
2018-04-12T07:06:03.223Z,77.10
2018-04-12T07:07:03.219Z,77.00
2018-04-12T07:08:03.206Z,77.40
2018-04-12T07:09:03.195Z,77.00
2018-04-12T07:10:03.159Z,76.50
2018-04-12T07:11:03.161Z,77.90
2018-04-12T07:12:03.136Z,75.50
2018-04-12T07:13:03.122Z,78.00
2018-04-12T07:14:03.118Z,77.00
2018-04-12T07:15:03.086Z,75.90
2018-04-12T07:16:03.083Z,76.30
2018-04-12T07:17:03.068Z,74.30
2018-04-12T07:18:03.046Z,75.80
2018-04-12T07:19:03.048Z,75.10
2018-04-12T07:20:03.013Z,78.40
2018-04-12T07:21:03.003Z,79.10
2018-04-12T07:22:03.004Z,75.70
2018-04-12T07:23:02.969Z,77.10
2018-04-12T07:24:02.973Z,77.10
2018-04-12T07:25:02.940Z,76.20
2018-04-12T07:26:02.933Z,74.30
2018-04-12T07:27:02.907Z,74.40
2018-04-12T07:28:02.902Z,73.10
2018-04-12T07:29:02.881Z,74.50
2018-04-12T07:30:03.156Z,72.70
2018-04-12T07:31:02.879Z,73.10
2018-04-12T07:32:02.841Z,71.50
2018-04-12T07:33:03.594Z,71.70
2018-04-12T07:34:02.809Z,73.00
2018-04-12T07:35:02.816Z,72.50
2018-04-12T07:36:02.805Z,73.00
2018-04-12T07:37:02.765Z,71.20
2018-04-12T07:38:02.750Z,70.00
2018-04-12T07:39:02.739Z,72.10
2018-04-12T07:40:02.734Z,70.30
2018-04-12T07:41:02.708Z,70.40
2018-04-12T07:42:02.712Z,70.10
2018-04-12T07:43:02.679Z,69.60
2018-04-12T07:44:02.679Z,67.50
2018-04-12T07:45:02.655Z,67.70
2018-04-12T07:46:02.641Z,67.70
2018-04-12T07:47:03.563Z,69.10
2018-04-12T07:48:02.606Z,69.30
2018-04-12T07:49:02.603Z,68.60
2018-04-12T07:50:02.579Z,68.50
2018-04-12T07:51:02.568Z,66.40
2018-04-12T07:52:02.583Z,67.40
2018-04-12T07:53:02.555Z,66.70
2018-04-12T07:54:02.548Z,66.20
2018-04-12T07:55:02.511Z,66.90
2018-04-12T07:56:02.510Z,65.10
2018-04-12T07:57:02.497Z,64.50
2018-04-12T07:58:02.469Z,64.90
2018-04-12T07:59:02.453Z,64.30
2018-04-12T08:00:03.066Z,63.90
2018-04-12T08:01:02.420Z,61.60
2018-04-12T08:02:02.413Z,62.20
2018-04-12T08:03:02.409Z,63.90
2018-04-12T08:04:02.382Z,62.40
2018-04-12T08:05:02.365Z,61.70
2018-04-12T08:06:02.360Z,62.40
2018-04-12T08:07:02.339Z,62.60
2018-04-12T08:08:02.368Z,61.30
2018-04-12T08:09:02.306Z,64.30
2018-04-12T08:10:02.294Z,62.30
2018-04-12T08:11:02.277Z,63.20
2018-04-12T08:12:02.263Z,61.30
2018-04-12T08:13:02.261Z,62.20
2018-04-12T08:14:02.235Z,62.50
2018-04-12T08:15:02.229Z,63.30
2018-04-12T08:16:02.210Z,64.50
2018-04-12T08:17:02.201Z,63.90
2018-04-12T08:18:02.194Z,65.30
2018-04-12T08:19:02.178Z,65.40
2018-04-12T08:20:02.148Z,66.00
2018-04-12T08:21:02.148Z,65.60
2018-04-12T08:22:02.117Z,64.30
2018-04-12T08:23:02.104Z,65.80
2018-04-12T08:24:02.098Z,65.30
2018-04-12T08:25:02.104Z,64.70
2018-04-12T08:26:02.067Z,64.70
2018-04-12T08:27:02.049Z,65.30
2018-04-12T08:28:02.034Z,64.40
2018-04-12T08:29:02.023Z,64.70
2018-04-12T08:30:02.009Z,64.60
2018-04-12T08:31:02.011Z,65.20
2018-04-12T08:32:01.976Z,64.40
2018-04-12T08:33:01.962Z,64.80
2018-04-12T08:34:01.952Z,63.00
2018-04-12T08:35:01.938Z,65.00
2018-04-12T08:36:22.936Z,64.80
2018-04-12T08:37:01.909Z,65.60
2018-04-12T08:38:01.892Z,65.90
2018-04-12T08:39:01.886Z,65.20
2018-04-12T08:40:01.870Z,67.10
2018-04-12T08:41:01.877Z,67.70
2018-04-12T08:42:01.859Z,70.20
2018-04-12T08:43:01.821Z,67.20
2018-04-12T08:44:01.806Z,68.40
2018-04-12T08:45:01.794Z,67.20
2018-04-12T08:46:01.776Z,67.20
2018-04-12T08:47:01.768Z,67.20
2018-04-12T08:48:01.781Z,68.20
2018-04-12T08:49:01.733Z,66.00
2018-04-12T08:50:01.724Z,70.10
2018-04-12T08:51:01.708Z,67.10
2018-04-12T08:52:01.705Z,69.00
2018-04-12T08:53:01.697Z,67.90
2018-04-12T08:54:01.665Z,68.90
2018-04-12T08:55:01.646Z,69.30
2018-04-12T08:56:02.619Z,71.50
2018-04-12T08:57:01.623Z,72.60
2018-04-12T08:58:01.617Z,69.20
2018-04-12T08:59:01.593Z,72.00
2018-04-12T09:00:01.591Z,73.10
2018-04-12T09:01:01.562Z,67.30
2018-04-12T09:02:01.566Z,68.60
2018-04-12T09:03:01.537Z,68.80
2018-04-12T09:04:01.541Z,68.50
2018-04-12T09:05:01.502Z,70.40
2018-04-12T09:06:01.493Z,69.80
2018-04-12T09:07:01.473Z,73.80
2018-04-12T09:08:01.464Z,69.60
2018-04-12T09:09:01.446Z,71.40
2018-04-12T09:10:01.452Z,71.50
2018-04-12T09:11:01.420Z,71.00
2018-04-12T09:12:01.401Z,72.20
2018-04-12T09:13:01.393Z,70.60
2018-04-12T09:14:01.393Z,69.70
2018-04-12T09:15:01.377Z,69.70
2018-04-12T09:16:01.364Z,70.40
2018-04-12T09:17:01.335Z,68.90
2018-04-12T09:18:01.347Z,71.90
2018-04-12T09:19:01.326Z,69.90
2018-04-12T09:20:01.289Z,71.80
2018-04-12T09:21:01.291Z,70.60
2018-04-12T09:22:01.263Z,71.10
2018-04-12T09:23:02.086Z,70.70
2018-04-12T09:24:01.235Z,70.00
2018-04-12T09:25:01.218Z,69.40
2018-04-12T09:26:01.264Z,69.30
2018-04-12T09:27:01.210Z,69.80
2018-04-12T09:28:01.716Z,70.30
2018-04-12T09:29:02.087Z,71.50
2018-04-12T09:30:01.198Z,71.00
2018-04-12T09:31:01.186Z,71.90
2018-04-12T09:32:01.122Z,70.40
2018-04-12T09:33:01.122Z,71.90
2018-04-12T09:34:01.097Z,69.60
2018-04-12T09:35:01.591Z,67.10
2018-04-12T09:36:01.074Z,70.60
2018-04-12T09:37:01.081Z,68.70
2018-04-12T09:38:01.094Z,70.60
2018-04-12T09:39:01.028Z,68.00
2018-04-12T09:40:01.022Z,68.50
2018-04-12T09:41:00.999Z,67.30
2018-04-12T09:42:01.010Z,67.90
2018-04-12T09:43:00.987Z,67.30
2018-04-12T09:44:00.971Z,68.30
2018-04-12T09:45:00.960Z,66.60
2018-04-12T09:46:00.944Z,67.20
2018-04-12T09:47:00.932Z,67.80
2018-04-12T09:48:00.937Z,66.60
2018-04-12T09:49:00.924Z,67.20
2018-04-12T09:50:00.898Z,67.10
2018-04-12T09:51:00.887Z,67.70
2018-04-12T09:52:00.882Z,66.00
2018-04-12T09:53:00.894Z,66.50
2018-04-12T09:54:00.864Z,66.80
2018-04-12T09:55:00.859Z,64.40
2018-04-12T09:56:00.836Z,64.40
2018-04-12T09:57:00.861Z,65.60
2018-04-12T09:58:00.811Z,65.00
2018-04-12T09:59:00.808Z,64.50
2018-04-12T10:00:00.856Z,64.60
2018-04-12T10:01:00.780Z,63.90
2018-04-12T10:02:00.770Z,64.50
2018-04-12T10:03:00.760Z,65.50
2018-04-12T10:04:00.763Z,63.70
2018-04-12T10:05:00.754Z,63.70
2018-04-12T10:06:00.733Z,61.50
2018-04-12T10:07:00.730Z,62.80
2018-04-12T10:08:00.903Z,60.90
2018-04-12T10:09:00.738Z,61.20
2018-04-12T10:10:00.694Z,60.60
2018-04-12T10:11:00.701Z,62.30
2018-04-12T10:12:00.699Z,60.80
2018-04-12T10:13:00.671Z,59.50
2018-04-12T10:14:00.682Z,58.70
2018-04-12T10:15:00.654Z,60.30
2018-04-12T10:16:00.673Z,59.30
2018-04-12T10:17:00.663Z,58.60
2018-04-12T10:18:00.635Z,60.40
2018-04-12T10:19:00.644Z,59.00
2018-04-12T10:20:00.621Z,58.80
2018-04-12T10:21:00.629Z,58.20
2018-04-12T10:22:00.608Z,58.50
2018-04-12T10:23:00.600Z,57.00
2018-04-12T10:24:00.596Z,56.60
2018-04-12T10:25:00.586Z,58.40
2018-04-12T10:26:00.600Z,58.20
2018-04-12T10:27:00.572Z,58.30
2018-04-12T10:28:00.563Z,58.50
2018-04-12T10:29:00.563Z,57.40
2018-04-12T10:30:00.547Z,56.80
2018-04-12T10:31:00.545Z,57.80
2018-04-12T10:32:00.557Z,56.70
2018-04-12T10:33:00.548Z,57.30
2018-04-12T10:34:00.525Z,57.60
2018-04-12T10:35:00.516Z,56.10
2018-04-12T10:36:00.542Z,56.60
2018-04-12T10:37:00.519Z,56.10
2018-04-12T10:38:00.495Z,55.60
2018-04-12T10:39:01.622Z,53.90
2018-04-12T10:40:00.500Z,53.90
2018-04-12T10:41:00.475Z,55.50
2018-04-12T10:42:00.489Z,55.30
2018-04-12T10:43:00.469Z,54.90
2018-04-12T10:44:00.469Z,54.70
2018-04-12T10:45:02.114Z,56.00
2018-04-12T10:46:00.435Z,54.60
2018-04-12T10:47:00.437Z,54.30
2018-04-12T10:48:00.435Z,53.60
2018-04-12T10:49:00.428Z,54.30
2018-04-12T10:50:00.401Z,53.80
2018-04-12T10:51:00.394Z,55.20
2018-04-12T10:52:00.415Z,53.70
2018-04-12T10:53:00.412Z,51.30
2018-04-12T10:54:00.368Z,52.60
2018-04-12T10:55:00.359Z,52.00
2018-04-12T10:56:00.349Z,53.60
2018-04-12T10:57:00.340Z,53.80
2018-04-12T10:58:00.348Z,53.10
2018-04-12T10:59:00.360Z,53.50
2018-04-12T11:00:00.315Z,52.00
2018-04-12T11:01:01.118Z,51.90
2018-04-12T11:02:00.295Z,51.20
2018-04-12T11:03:00.288Z,51.70
2018-04-12T11:04:00.284Z,51.70
2018-04-12T11:05:00.317Z,51.70
2018-04-12T11:06:00.270Z,50.10
2018-04-12T11:07:00.254Z,51.40
2018-04-12T11:08:00.245Z,52.20
2018-04-12T11:09:00.234Z,51.40
2018-04-12T11:10:00.236Z,52.00
2018-04-12T11:11:00.217Z,52.50
2018-04-12T11:12:00.247Z,51.70
2018-04-12T11:13:00.200Z,52.10
2018-04-12T11:14:00.194Z,52.00
2018-04-12T11:15:00.206Z,51.00
2018-04-12T11:16:00.173Z,51.70
2018-04-12T11:17:00.166Z,50.30
2018-04-12T11:18:00.156Z,49.80
2018-04-12T11:19:00.147Z,50.40
2018-04-12T11:20:00.137Z,49.20
2018-04-12T11:21:00.176Z,50.10
2018-04-12T11:22:00.117Z,51.40
2018-04-12T11:23:00.114Z,50.00
2018-04-12T11:24:00.106Z,49.40
2018-04-12T11:25:00.111Z,49.20
2018-04-12T11:26:00.107Z,50.50
2018-04-12T11:27:00.070Z,48.60
2018-04-12T11:28:00.073Z,48.70
2018-04-12T11:29:00.072Z,48.80
2018-04-12T11:30:00.073Z,48.50
2018-04-12T11:31:00.048Z,48.20
2018-04-12T11:32:00.056Z,48.00
2018-04-12T11:33:00.027Z,48.60
2018-04-12T11:34:00.013Z,47.50
2018-04-12T11:35:00.037Z,46.70
2018-04-12T11:35:59.997Z,47.70
2018-04-12T11:37:00.047Z,46.80
2018-04-12T11:37:59.998Z,45.80
2018-04-12T11:38:59.986Z,45.80
2018-04-12T11:39:59.969Z,45.10
2018-04-12T11:40:59.964Z,46.40
2018-04-12T11:41:59.970Z,45.00
2018-04-12T11:42:59.976Z,46.00
2018-04-12T11:43:59.945Z,45.50
2018-04-12T11:44:59.941Z,45.50
2018-04-12T11:45:59.935Z,44.70
2018-04-12T11:46:59.953Z,43.70
2018-04-12T11:47:59.926Z,43.40
2018-04-12T11:48:59.930Z,43.70
2018-04-12T11:49:59.924Z,44.00
2018-04-12T11:50:59.895Z,43.80
2018-04-12T11:51:59.893Z,42.70
2018-04-12T11:52:59.909Z,44.40
2018-04-12T11:53:59.901Z,42.80
2018-04-12T11:54:59.899Z,43.40
2018-04-12T11:55:59.892Z,43.90
2018-04-12T11:56:59.865Z,42.50
2018-04-12T11:57:59.857Z,43.20
2018-04-12T11:58:59.871Z,42.40
2018-04-12T11:59:59.846Z,43.30
2018-04-12T12:00:59.847Z,42.60
2018-04-12T12:01:59.843Z,43.60
2018-04-12T12:02:59.827Z,43.20
2018-04-12T12:03:59.834Z,43.30
2018-04-12T12:04:59.838Z,43.40
2018-04-12T12:05:59.816Z,44.50
2018-04-12T12:06:59.810Z,43.30
2018-04-12T12:07:59.795Z,42.30
2018-04-12T12:08:59.794Z,43.80
2018-04-12T12:09:59.783Z,42.50
2018-04-12T12:11:01.142Z,41.70
2018-04-12T12:11:59.771Z,42.30
2018-04-12T12:12:59.782Z,43.20
2018-04-12T12:14:00.681Z,42.30
2018-04-12T12:14:59.752Z,42.30
2018-04-12T12:15:59.760Z,40.70
2018-04-12T12:16:59.737Z,42.00
2018-04-12T12:17:59.743Z,41.90
2018-04-12T12:18:59.744Z,41.40
2018-04-12T12:19:59.736Z,40.90
2018-04-12T12:20:59.743Z,40.50
2018-04-12T12:21:59.728Z,41.40
2018-04-12T12:22:59.717Z,39.90
2018-04-12T12:23:59.704Z,40.20
2018-04-12T12:24:59.707Z,41.20
2018-04-12T12:25:59.780Z,41.00
2018-04-12T12:26:59.684Z,40.50
2018-04-12T12:27:59.697Z,39.80
2018-04-12T12:28:59.682Z,39.30
2018-04-12T12:29:59.680Z,40.90
2018-04-12T12:31:00.181Z,38.40
2018-04-12T12:31:59.671Z,39.60
2018-04-12T12:32:59.685Z,39.90
2018-04-12T12:33:59.667Z,40.80
2018-04-12T12:34:59.663Z,40.10
2018-04-12T12:35:59.664Z,40.10
2018-04-12T12:36:59.660Z,40.50
2018-04-12T12:37:59.655Z,41.40
2018-04-12T12:38:59.838Z,40.50
2018-04-12T12:39:59.650Z,39.70
2018-04-12T12:40:59.647Z,40.20
2018-04-12T12:41:59.646Z,40.40
2018-04-12T12:42:59.645Z,40.40
2018-04-12T12:43:59.656Z,38.80
2018-04-12T12:44:59.640Z,39.00
2018-04-12T12:45:59.634Z,40.00
2018-04-12T12:46:59.635Z,39.90